sensor_id;sensor_type;location;lat;lon;timestamp;P1;durP1;ratioP1;P2;durP2;ratioP2
46288;SDS011;63105;46.158;14.604;2024-03-07T00:02:09;23.60;;;16.70;;
46288;SDS011;63105;46.158;14.604;2024-03-07T00:04:34;25.95;;;17.60;;
46288;SDS011;63105;46.158;14.604;2024-03-07T00:07:01;27.92;;;19.35;;
46288;SDS011;63105;46.158;14.604;2024-03-07T00:09:28;29.02;;;18.17;;
46288;SDS011;63105;46.158;14.604;2024-03-07T00:11:53;28.27;;;19.13;;
46288;SDS011;63105;46.158;14.604;2024-03-07T00:14:19;29.85;;;18.63;;
46288;SDS011;63105;46.158;14.604;2024-03-07T00:16:45;33.88;;;22.10;;
46288;SDS011;63105;46.158;14.604;2024-03-07T00:19:11;33.33;;;22.40;;
46288;SDS011;63105;46.158;14.604;2024-03-07T00:21:36;35.63;;;23.13;;
46288;SDS011;63105;46.158;14.604;2024-03-07T00:24:01;32.63;;;21.20;;
46288;SDS011;63105;46.158;14.604;2024-03-07T00:26:30;30.92;;;20.73;;
46288;SDS011;63105;46.158;14.604;2024-03-07T00:28:55;33.40;;;23.48;;
46288;SDS011;63105;46.158;14.604;2024-03-07T00:31:20;34.70;;;23.02;;
46288;SDS011;63105;46.158;14.604;2024-03-07T00:33:46;30.40;;;20.23;;
46288;SDS011;63105;46.158;14.604;2024-03-07T00:36:11;30.50;;;20.20;;
46288;SDS011;63105;46.158;14.604;2024-03-07T00:38:37;29.08;;;19.30;;
46288;SDS011;63105;46.158;14.604;2024-03-07T00:41:02;28.58;;;18.67;;
46288;SDS011;63105;46.158;14.604;2024-03-07T00:43:28;30.23;;;19.40;;
46288;SDS011;63105;46.158;14.604;2024-03-07T00:45:53;30.40;;;19.50;;
46288;SDS011;63105;46.158;14.604;2024-03-07T00:48:19;27.48;;;18.42;;
46288;SDS011;63105;46.158;14.604;2024-03-07T00:50:44;28.98;;;19.10;;
46288;SDS011;63105;46.158;14.604;2024-03-07T00:53:09;28.02;;;18.92;;
46288;SDS011;63105;46.158;14.604;2024-03-07T00:55:35;27.67;;;18.58;;
46288;SDS011;63105;46.158;14.604;2024-03-07T00:58:00;28.42;;;18.45;;
46288;SDS011;63105;46.158;14.604;2024-03-07T01:00:25;26.60;;;19.10;;
46288;SDS011;63105;46.158;14.604;2024-03-07T01:02:50;28.58;;;18.98;;
46288;SDS011;63105;46.158;14.604;2024-03-07T01:05:18;26.75;;;18.73;;
46288;SDS011;63105;46.158;14.604;2024-03-07T01:07:43;23.88;;;16.52;;
46288;SDS011;63105;46.158;14.604;2024-03-07T01:10:11;24.77;;;17.13;;
46288;SDS011;63105;46.158;14.604;2024-03-07T01:12:36;27.55;;;17.77;;
46288;SDS011;63105;46.158;14.604;2024-03-07T01:15:02;28.85;;;18.67;;
46288;SDS011;63105;46.158;14.604;2024-03-07T01:17:29;26.75;;;18.13;;
46288;SDS011;63105;46.158;14.604;2024-03-07T01:19:54;27.33;;;19.55;;
46288;SDS011;63105;46.158;14.604;2024-03-07T01:22:19;26.73;;;19.08;;
46288;SDS011;63105;46.158;14.604;2024-03-07T01:24:45;28.52;;;19.50;;
46288;SDS011;63105;46.158;14.604;2024-03-07T01:27:10;27.92;;;18.73;;
46288;SDS011;63105;46.158;14.604;2024-03-07T01:29:35;26.40;;;17.60;;
46288;SDS011;63105;46.158;14.604;2024-03-07T01:32:00;28.70;;;18.80;;
46288;SDS011;63105;46.158;14.604;2024-03-07T01:34:25;25.77;;;17.88;;
46288;SDS011;63105;46.158;14.604;2024-03-07T01:36:51;28.13;;;18.30;;
46288;SDS011;63105;46.158;14.604;2024-03-07T01:39:16;27.90;;;19.20;;
46288;SDS011;63105;46.158;14.604;2024-03-07T01:41:41;26.77;;;18.23;;
46288;SDS011;63105;46.158;14.604;2024-03-07T01:44:07;28.52;;;19.25;;
46288;SDS011;63105;46.158;14.604;2024-03-07T01:46:32;25.73;;;17.17;;
46288;SDS011;63105;46.158;14.604;2024-03-07T01:48:57;27.45;;;18.05;;
46288;SDS011;63105;46.158;14.604;2024-03-07T01:51:24;26.98;;;17.90;;
46288;SDS011;63105;46.158;14.604;2024-03-07T01:53:51;26.85;;;18.45;;
46288;SDS011;63105;46.158;14.604;2024-03-07T01:56:16;26.17;;;16.75;;
46288;SDS011;63105;46.158;14.604;2024-03-07T01:58:42;28.00;;;18.90;;
46288;SDS011;63105;46.158;14.604;2024-03-07T02:01:07;27.50;;;17.88;;
46288;SDS011;63105;46.158;14.604;2024-03-07T02:03:33;25.70;;;17.00;;
46288;SDS011;63105;46.158;14.604;2024-03-07T02:05:58;28.02;;;18.42;;
46288;SDS011;63105;46.158;14.604;2024-03-07T02:08:23;25.20;;;17.83;;
46288;SDS011;63105;46.158;14.604;2024-03-07T02:10:49;25.35;;;17.33;;
46288;SDS011;63105;46.158;14.604;2024-03-07T02:13:14;27.35;;;18.80;;
46288;SDS011;63105;46.158;14.604;2024-03-07T02:15:39;27.65;;;18.48;;
46288;SDS011;63105;46.158;14.604;2024-03-07T02:18:04;26.00;;;18.02;;
46288;SDS011;63105;46.158;14.604;2024-03-07T02:20:30;25.25;;;17.30;;
46288;SDS011;63105;46.158;14.604;2024-03-07T02:22:55;25.35;;;17.33;;
46288;SDS011;63105;46.158;14.604;2024-03-07T02:25:21;25.27;;;17.40;;
46288;SDS011;63105;46.158;14.604;2024-03-07T02:27:46;25.25;;;17.13;;
46288;SDS011;63105;46.158;14.604;2024-03-07T02:30:11;22.73;;;15.88;;
46288;SDS011;63105;46.158;14.604;2024-03-07T02:32:37;25.33;;;16.95;;
46288;SDS011;63105;46.158;14.604;2024-03-07T02:35:03;25.13;;;16.90;;
46288;SDS011;63105;46.158;14.604;2024-03-07T02:37:28;23.10;;;15.70;;
46288;SDS011;63105;46.158;14.604;2024-03-07T02:39:54;24.60;;;16.83;;
46288;SDS011;63105;46.158;14.604;2024-03-07T02:42:19;24.40;;;16.27;;
46288;SDS011;63105;46.158;14.604;2024-03-07T02:44:44;24.05;;;16.38;;
46288;SDS011;63105;46.158;14.604;2024-03-07T02:47:09;22.13;;;15.32;;
46288;SDS011;63105;46.158;14.604;2024-03-07T02:49:35;22.17;;;15.57;;
46288;SDS011;63105;46.158;14.604;2024-03-07T02:52:00;22.92;;;16.25;;
46288;SDS011;63105;46.158;14.604;2024-03-07T02:54:25;22.85;;;15.88;;
46288;SDS011;63105;46.158;14.604;2024-03-07T02:56:50;21.23;;;15.43;;
46288;SDS011;63105;46.158;14.604;2024-03-07T02:59:16;21.00;;;15.25;;
46288;SDS011;63105;46.158;14.604;2024-03-07T03:01:41;19.23;;;13.50;;
46288;SDS011;63105;46.158;14.604;2024-03-07T03:04:06;21.83;;;14.63;;
46288;SDS011;63105;46.158;14.604;2024-03-07T03:06:32;22.08;;;15.32;;
46288;SDS011;63105;46.158;14.604;2024-03-07T03:08:58;21.45;;;14.38;;
46288;SDS011;63105;46.158;14.604;2024-03-07T03:11:23;19.60;;;14.30;;
46288;SDS011;63105;46.158;14.604;2024-03-07T03:13:50;30.35;;;14.55;;
46288;SDS011;63105;46.158;14.604;2024-03-07T03:16:16;20.40;;;14.23;;
46288;SDS011;63105;46.158;14.604;2024-03-07T03:18:41;20.67;;;14.07;;
46288;SDS011;63105;46.158;14.604;2024-03-07T03:21:06;32.88;;;14.98;;
46288;SDS011;63105;46.158;14.604;2024-03-07T03:23:32;20.80;;;14.85;;
46288;SDS011;63105;46.158;14.604;2024-03-07T03:25:58;22.00;;;15.02;;
46288;SDS011;63105;46.158;14.604;2024-03-07T03:28:24;20.40;;;14.35;;
46288;SDS011;63105;46.158;14.604;2024-03-07T03:30:50;21.13;;;14.50;;
46288;SDS011;63105;46.158;14.604;2024-03-07T03:33:18;23.42;;;15.68;;
46288;SDS011;63105;46.158;14.604;2024-03-07T03:35:43;20.90;;;15.30;;
46288;SDS011;63105;46.158;14.604;2024-03-07T03:38:09;48.90;;;17.02;;
46288;SDS011;63105;46.158;14.604;2024-03-07T03:40:35;62.20;;;17.63;;
46288;SDS011;63105;46.158;14.604;2024-03-07T03:43:00;22.42;;;15.55;;
46288;SDS011;63105;46.158;14.604;2024-03-07T03:45:28;35.75;;;16.08;;
46288;SDS011;63105;46.158;14.604;2024-03-07T03:47:54;32.78;;;16.02;;
46288;SDS011;63105;46.158;14.604;2024-03-07T03:50:19;20.95;;;14.98;;
46288;SDS011;63105;46.158;14.604;2024-03-07T03:52:45;22.35;;;15.82;;
46288;SDS011;63105;46.158;14.604;2024-03-07T03:55:10;22.38;;;15.85;;
46288;SDS011;63105;46.158;14.604;2024-03-07T03:57:37;22.38;;;14.52;;
46288;SDS011;63105;46.158;14.604;2024-03-07T04:00:03;21.40;;;15.23;;
46288;SDS011;63105;46.158;14.604;2024-03-07T04:02:35;22.75;;;15.60;;
46288;SDS011;63105;46.158;14.604;2024-03-07T04:05:02;23.00;;;16.10;;
46288;SDS011;63105;46.158;14.604;2024-03-07T04:07:28;21.02;;;14.43;;
46288;SDS011;63105;46.158;14.604;2024-03-07T04:09:54;23.55;;;15.68;;
46288;SDS011;63105;46.158;14.604;2024-03-07T04:12:19;20.98;;;15.18;;
46288;SDS011;63105;46.158;14.604;2024-03-07T04:14:44;21.35;;;14.48;;
46288;SDS011;63105;46.158;14.604;2024-03-07T04:17:10;19.15;;;13.98;;
46288;SDS011;63105;46.158;14.604;2024-03-07T04:19:41;27.15;;;16.83;;
46288;SDS011;63105;46.158;14.604;2024-03-07T04:22:06;25.38;;;15.23;;
46288;SDS011;63105;46.158;14.604;2024-03-07T04:24:33;28.73;;;16.75;;
46288;SDS011;63105;46.158;14.604;2024-03-07T04:27:01;24.00;;;16.65;;
46288;SDS011;63105;46.158;14.604;2024-03-07T04:29:29;21.45;;;15.55;;
46288;SDS011;63105;46.158;14.604;2024-03-07T04:31:55;26.75;;;15.35;;
46288;SDS011;63105;46.158;14.604;2024-03-07T04:34:20;21.75;;;15.38;;
46288;SDS011;63105;46.158;14.604;2024-03-07T04:36:45;23.35;;;15.95;;
46288;SDS011;63105;46.158;14.604;2024-03-07T04:39:10;22.35;;;15.20;;
46288;SDS011;63105;46.158;14.604;2024-03-07T04:41:47;28.10;;;14.48;;
46288;SDS011;63105;46.158;14.604;2024-03-07T04:44:12;20.13;;;14.60;;
46288;SDS011;63105;46.158;14.604;2024-03-07T04:46:38;22.50;;;15.07;;
46288;SDS011;63105;46.158;14.604;2024-03-07T04:49:07;22.13;;;15.13;;
46288;SDS011;63105;46.158;14.604;2024-03-07T04:51:32;21.55;;;14.68;;
46288;SDS011;63105;46.158;14.604;2024-03-07T04:53:58;18.67;;;13.88;;
46288;SDS011;63105;46.158;14.604;2024-03-07T04:56:23;19.45;;;13.50;;
46288;SDS011;63105;46.158;14.604;2024-03-07T04:58:48;21.65;;;15.10;;
46288;SDS011;63105;46.158;14.604;2024-03-07T05:01:15;20.90;;;14.80;;
46288;SDS011;63105;46.158;14.604;2024-03-07T05:03:40;20.52;;;14.98;;
46288;SDS011;63105;46.158;14.604;2024-03-07T05:06:05;21.40;;;15.05;;
46288;SDS011;63105;46.158;14.604;2024-03-07T05:08:30;19.77;;;14.52;;
46288;SDS011;63105;46.158;14.604;2024-03-07T05:10:56;20.92;;;14.98;;
46288;SDS011;63105;46.158;14.604;2024-03-07T05:13:21;19.90;;;14.85;;
46288;SDS011;63105;46.158;14.604;2024-03-07T05:15:46;19.75;;;14.25;;
46288;SDS011;63105;46.158;14.604;2024-03-07T05:18:12;18.92;;;14.48;;
46288;SDS011;63105;46.158;14.604;2024-03-07T05:20:37;19.30;;;13.82;;
46288;SDS011;63105;46.158;14.604;2024-03-07T05:23:03;20.48;;;14.27;;
46288;SDS011;63105;46.158;14.604;2024-03-07T05:25:30;17.85;;;13.82;;
46288;SDS011;63105;46.158;14.604;2024-03-07T05:27:55;16.95;;;12.93;;
46288;SDS011;63105;46.158;14.604;2024-03-07T05:30:20;18.45;;;13.45;;
46288;SDS011;63105;46.158;14.604;2024-03-07T05:32:48;18.55;;;13.32;;
46288;SDS011;63105;46.158;14.604;2024-03-07T05:35:13;20.05;;;14.43;;
46288;SDS011;63105;46.158;14.604;2024-03-07T05:37:38;18.35;;;13.35;;
46288;SDS011;63105;46.158;14.604;2024-03-07T05:40:07;19.13;;;14.05;;
46288;SDS011;63105;46.158;14.604;2024-03-07T05:42:32;18.23;;;12.32;;
46288;SDS011;63105;46.158;14.604;2024-03-07T05:44:57;26.67;;;13.93;;
46288;SDS011;63105;46.158;14.604;2024-03-07T05:47:23;29.58;;;15.02;;
46288;SDS011;63105;46.158;14.604;2024-03-07T05:49:48;18.50;;;13.88;;
46288;SDS011;63105;46.158;14.604;2024-03-07T05:52:13;19.77;;;14.15;;
46288;SDS011;63105;46.158;14.604;2024-03-07T05:54:39;25.50;;;15.82;;
46288;SDS011;63105;46.158;14.604;2024-03-07T05:57:04;20.13;;;14.23;;
46288;SDS011;63105;46.158;14.604;2024-03-07T05:59:31;19.23;;;14.43;;
46288;SDS011;63105;46.158;14.604;2024-03-07T06:01:57;17.63;;;12.70;;
46288;SDS011;63105;46.158;14.604;2024-03-07T06:04:23;41.95;;;16.98;;
46288;SDS011;63105;46.158;14.604;2024-03-07T06:06:48;40.33;;;19.85;;
46288;SDS011;63105;46.158;14.604;2024-03-07T06:09:14;36.47;;;18.60;;
46288;SDS011;63105;46.158;14.604;2024-03-07T06:11:39;27.80;;;16.73;;
46288;SDS011;63105;46.158;14.604;2024-03-07T06:14:08;39.38;;;18.27;;
46288;SDS011;63105;46.158;14.604;2024-03-07T06:16:37;43.40;;;18.80;;
46288;SDS011;63105;46.158;14.604;2024-03-07T06:19:03;26.20;;;15.98;;
46288;SDS011;63105;46.158;14.604;2024-03-07T06:21:29;35.13;;;16.30;;
46288;SDS011;63105;46.158;14.604;2024-03-07T06:23:57;21.27;;;14.57;;
46288;SDS011;63105;46.158;14.604;2024-03-07T06:26:26;22.30;;;14.85;;
46288;SDS011;63105;46.158;14.604;2024-03-07T06:29:05;26.27;;;16.75;;
46288;SDS011;63105;46.158;14.604;2024-03-07T06:31:31;20.60;;;15.02;;
46288;SDS011;63105;46.158;14.604;2024-03-07T06:33:57;22.90;;;15.07;;
46288;SDS011;63105;46.158;14.604;2024-03-07T06:36:22;32.50;;;14.82;;
46288;SDS011;63105;46.158;14.604;2024-03-07T06:38:48;22.52;;;14.20;;
46288;SDS011;63105;46.158;14.604;2024-03-07T06:41:13;21.15;;;14.95;;
46288;SDS011;63105;46.158;14.604;2024-03-07T06:43:39;20.38;;;14.15;;
46288;SDS011;63105;46.158;14.604;2024-03-07T06:46:04;21.58;;;15.18;;
46288;SDS011;63105;46.158;14.604;2024-03-07T06:48:29;19.75;;;14.43;;
46288;SDS011;63105;46.158;14.604;2024-03-07T06:50:54;21.02;;;14.70;;
46288;SDS011;63105;46.158;14.604;2024-03-07T06:53:20;20.45;;;14.13;;
46288;SDS011;63105;46.158;14.604;2024-03-07T06:55:45;20.02;;;14.07;;
46288;SDS011;63105;46.158;14.604;2024-03-07T06:58:10;34.00;;;15.85;;
46288;SDS011;63105;46.158;14.604;2024-03-07T07:00:35;25.33;;;15.75;;
46288;SDS011;63105;46.158;14.604;2024-03-07T07:03:01;42.10;;;16.35;;
46288;SDS011;63105;46.158;14.604;2024-03-07T07:05:28;21.60;;;14.50;;
46288;SDS011;63105;46.158;14.604;2024-03-07T07:07:55;22.50;;;14.65;;
46288;SDS011;63105;46.158;14.604;2024-03-07T07:10:20;37.78;;;15.82;;
46288;SDS011;63105;46.158;14.604;2024-03-07T07:12:49;20.00;;;14.80;;
46288;SDS011;63105;46.158;14.604;2024-03-07T07:15:16;20.63;;;13.35;;
46288;SDS011;63105;46.158;14.604;2024-03-07T07:17:43;41.70;;;18.02;;
46288;SDS011;63105;46.158;14.604;2024-03-07T07:20:10;19.98;;;14.77;;
46288;SDS011;63105;46.158;14.604;2024-03-07T07:22:36;20.33;;;14.20;;
46288;SDS011;63105;46.158;14.604;2024-03-07T07:25:02;19.52;;;14.40;;
46288;SDS011;63105;46.158;14.604;2024-03-07T07:27:29;25.80;;;17.73;;
46288;SDS011;63105;46.158;14.604;2024-03-07T07:29:54;22.67;;;15.20;;
46288;SDS011;63105;46.158;14.604;2024-03-07T07:32:20;19.20;;;14.38;;
46288;SDS011;63105;46.158;14.604;2024-03-07T07:34:48;19.00;;;13.55;;
46288;SDS011;63105;46.158;14.604;2024-03-07T07:37:13;20.75;;;14.32;;
46288;SDS011;63105;46.158;14.604;2024-03-07T07:39:38;19.73;;;14.68;;
46288;SDS011;63105;46.158;14.604;2024-03-07T07:42:03;22.45;;;15.40;;
46288;SDS011;63105;46.158;14.604;2024-03-07T07:44:29;22.55;;;15.65;;
46288;SDS011;63105;46.158;14.604;2024-03-07T07:46:54;22.75;;;15.18;;
46288;SDS011;63105;46.158;14.604;2024-03-07T07:49:20;19.13;;;13.30;;
46288;SDS011;63105;46.158;14.604;2024-03-07T07:51:45;18.88;;;13.25;;
46288;SDS011;63105;46.158;14.604;2024-03-07T07:54:10;19.77;;;14.02;;
46288;SDS011;63105;46.158;14.604;2024-03-07T07:56:36;20.05;;;14.63;;
46288;SDS011;63105;46.158;14.604;2024-03-07T07:59:01;20.77;;;14.32;;
46288;SDS011;63105;46.158;14.604;2024-03-07T08:01:29;21.45;;;14.60;;
46288;SDS011;63105;46.158;14.604;2024-03-07T08:03:54;22.77;;;15.10;;
46288;SDS011;63105;46.158;14.604;2024-03-07T08:06:20;19.77;;;14.32;;
46288;SDS011;63105;46.158;14.604;2024-03-07T08:08:45;21.10;;;15.30;;
46288;SDS011;63105;46.158;14.604;2024-03-07T08:11:11;21.33;;;14.93;;
46288;SDS011;63105;46.158;14.604;2024-03-07T08:13:39;21.30;;;15.13;;
46288;SDS011;63105;46.158;14.604;2024-03-07T08:16:05;24.08;;;15.52;;
46288;SDS011;63105;46.158;14.604;2024-03-07T08:18:30;19.15;;;13.48;;
46288;SDS011;63105;46.158;14.604;2024-03-07T08:20:55;22.92;;;15.57;;
46288;SDS011;63105;46.158;14.604;2024-03-07T08:23:21;21.58;;;14.95;;
46288;SDS011;63105;46.158;14.604;2024-03-07T08:25:50;20.40;;;14.82;;
46288;SDS011;63105;46.158;14.604;2024-03-07T08:28:15;23.88;;;15.10;;
46288;SDS011;63105;46.158;14.604;2024-03-07T08:30:40;19.20;;;13.77;;
46288;SDS011;63105;46.158;14.604;2024-03-07T08:33:06;21.40;;;14.55;;
46288;SDS011;63105;46.158;14.604;2024-03-07T08:35:32;20.83;;;14.50;;
46288;SDS011;63105;46.158;14.604;2024-03-07T08:37:58;20.17;;;14.27;;
46288;SDS011;63105;46.158;14.604;2024-03-07T08:40:24;20.08;;;13.57;;
46288;SDS011;63105;46.158;14.604;2024-03-07T08:42:50;20.40;;;14.13;;
46288;SDS011;63105;46.158;14.604;2024-03-07T08:45:16;18.88;;;13.32;;
46288;SDS011;63105;46.158;14.604;2024-03-07T08:47:45;19.35;;;14.15;;
46288;SDS011;63105;46.158;14.604;2024-03-07T08:50:10;21.15;;;14.27;;
46288;SDS011;63105;46.158;14.604;2024-03-07T08:52:35;19.67;;;14.02;;
46288;SDS011;63105;46.158;14.604;2024-03-07T08:55:05;20.25;;;14.32;;
46288;SDS011;63105;46.158;14.604;2024-03-07T08:57:30;20.45;;;14.55;;
46288;SDS011;63105;46.158;14.604;2024-03-07T08:59:56;18.50;;;13.48;;
46288;SDS011;63105;46.158;14.604;2024-03-07T09:02:21;17.92;;;13.05;;
46288;SDS011;63105;46.158;14.604;2024-03-07T09:04:46;18.30;;;13.02;;
46288;SDS011;63105;46.158;14.604;2024-03-07T09:07:11;19.83;;;13.30;;
46288;SDS011;63105;46.158;14.604;2024-03-07T09:09:38;19.58;;;14.35;;
46288;SDS011;63105;46.158;14.604;2024-03-07T09:12:03;18.85;;;13.57;;
46288;SDS011;63105;46.158;14.604;2024-03-07T09:14:30;18.75;;;13.20;;
46288;SDS011;63105;46.158;14.604;2024-03-07T09:16:55;20.05;;;13.65;;
46288;SDS011;63105;46.158;14.604;2024-03-07T09:19:21;18.52;;;13.73;;
46288;SDS011;63105;46.158;14.604;2024-03-07T09:21:50;17.65;;;12.90;;
46288;SDS011;63105;46.158;14.604;2024-03-07T09:24:15;20.65;;;12.50;;
46288;SDS011;63105;46.158;14.604;2024-03-07T09:26:41;17.90;;;12.63;;
46288;SDS011;63105;46.158;14.604;2024-03-07T09:29:06;18.35;;;13.13;;
46288;SDS011;63105;46.158;14.604;2024-03-07T09:31:32;15.65;;;11.85;;
46288;SDS011;63105;46.158;14.604;2024-03-07T09:33:57;16.58;;;12.60;;
46288;SDS011;63105;46.158;14.604;2024-03-07T09:36:23;19.55;;;14.50;;
46288;SDS011;63105;46.158;14.604;2024-03-07T09:38:48;18.35;;;13.93;;
46288;SDS011;63105;46.158;14.604;2024-03-07T09:41:14;20.67;;;14.00;;
46288;SDS011;63105;46.158;14.604;2024-03-07T09:43:40;17.23;;;12.15;;
46288;SDS011;63105;46.158;14.604;2024-03-07T09:46:08;20.48;;;14.48;;
46288;SDS011;63105;46.158;14.604;2024-03-07T09:48:35;17.30;;;12.43;;
46288;SDS011;63105;46.158;14.604;2024-03-07T09:51:00;18.00;;;12.45;;
46288;SDS011;63105;46.158;14.604;2024-03-07T09:53:27;17.67;;;12.70;;
46288;SDS011;63105;46.158;14.604;2024-03-07T09:55:53;16.13;;;11.82;;
46288;SDS011;63105;46.158;14.604;2024-03-07T09:58:19;18.63;;;12.27;;
46288;SDS011;63105;46.158;14.604;2024-03-07T10:00:47;14.35;;;10.90;;
46288;SDS011;63105;46.158;14.604;2024-03-07T10:03:15;15.38;;;11.23;;
46288;SDS011;63105;46.158;14.604;2024-03-07T10:05:42;15.38;;;11.43;;
46288;SDS011;63105;46.158;14.604;2024-03-07T10:08:08;15.75;;;11.30;;
46288;SDS011;63105;46.158;14.604;2024-03-07T10:10:33;14.63;;;11.05;;
46288;SDS011;63105;46.158;14.604;2024-03-07T10:12:58;14.63;;;10.73;;
46288;SDS011;63105;46.158;14.604;2024-03-07T10:15:28;12.63;;;9.75;;
46288;SDS011;63105;46.158;14.604;2024-03-07T10:17:53;15.90;;;10.45;;
46288;SDS011;63105;46.158;14.604;2024-03-07T10:20:18;15.05;;;10.65;;
46288;SDS011;63105;46.158;14.604;2024-03-07T10:22:47;14.95;;;10.50;;
46288;SDS011;63105;46.158;14.604;2024-03-07T10:25:13;14.20;;;10.18;;
46288;SDS011;63105;46.158;14.604;2024-03-07T10:27:42;14.27;;;10.55;;
46288;SDS011;63105;46.158;14.604;2024-03-07T10:30:09;13.75;;;10.35;;
46288;SDS011;63105;46.158;14.604;2024-03-07T10:32:34;12.32;;;9.00;;
46288;SDS011;63105;46.158;14.604;2024-03-07T10:35:01;13.63;;;10.05;;
46288;SDS011;63105;46.158;14.604;2024-03-07T10:37:28;12.88;;;9.35;;
46288;SDS011;63105;46.158;14.604;2024-03-07T10:39:53;17.58;;;10.07;;
46288;SDS011;63105;46.158;14.604;2024-03-07T10:42:19;14.18;;;9.63;;
46288;SDS011;63105;46.158;14.604;2024-03-07T10:44:47;13.25;;;9.30;;
46288;SDS011;63105;46.158;14.604;2024-03-07T10:47:19;14.25;;;9.82;;
46288;SDS011;63105;46.158;14.604;2024-03-07T10:50:04;14.63;;;9.60;;
46288;SDS011;63105;46.158;14.604;2024-03-07T10:58:02;16.52;;;11.60;;
46288;SDS011;63105;46.158;14.604;2024-03-07T11:00:27;14.30;;;10.32;;
46288;SDS011;63105;46.158;14.604;2024-03-07T11:03:04;13.52;;;9.45;;
46288;SDS011;63105;46.158;14.604;2024-03-07T11:05:33;14.00;;;10.18;;
46288;SDS011;63105;46.158;14.604;2024-03-07T11:07:59;17.50;;;11.77;;
46288;SDS011;63105;46.158;14.604;2024-03-07T11:10:27;16.02;;;11.50;;
46288;SDS011;63105;46.158;14.604;2024-03-07T11:12:53;15.18;;;11.40;;
46288;SDS011;63105;46.158;14.604;2024-03-07T11:15:19;24.55;;;15.48;;
46288;SDS011;63105;46.158;14.604;2024-03-07T11:17:49;16.30;;;11.25;;
46288;SDS011;63105;46.158;14.604;2024-03-07T11:20:29;20.27;;;12.13;;
46288;SDS011;63105;46.158;14.604;2024-03-07T11:22:58;13.60;;;9.93;;
46288;SDS011;63105;46.158;14.604;2024-03-07T11:25:24;15.25;;;10.50;;
46288;SDS011;63105;46.158;14.604;2024-03-07T11:27:53;16.10;;;11.40;;
46288;SDS011;63105;46.158;14.604;2024-03-07T11:30:20;23.23;;;15.57;;
46288;SDS011;63105;46.158;14.604;2024-03-07T11:32:46;17.00;;;11.60;;
46288;SDS011;63105;46.158;14.604;2024-03-07T11:35:13;18.25;;;12.35;;
46288;SDS011;63105;46.158;14.604;2024-03-07T11:37:42;20.90;;;14.30;;
46288;SDS011;63105;46.158;14.604;2024-03-07T11:42:50;18.15;;;11.85;;
46288;SDS011;63105;46.158;14.604;2024-03-07T11:45:15;13.73;;;10.23;;
46288;SDS011;63105;46.158;14.604;2024-03-07T11:47:50;14.95;;;9.75;;
46288;SDS011;63105;46.158;14.604;2024-03-07T11:50:16;14.90;;;10.43;;
46288;SDS011;63105;46.158;14.604;2024-03-07T11:52:44;14.32;;;9.98;;
46288;SDS011;63105;46.158;14.604;2024-03-07T11:55:11;14.00;;;10.45;;
46288;SDS011;63105;46.158;14.604;2024-03-07T11:57:36;17.08;;;11.95;;
46288;SDS011;63105;46.158;14.604;2024-03-07T12:00:03;18.00;;;12.25;;
46288;SDS011;63105;46.158;14.604;2024-03-07T12:02:37;15.00;;;10.43;;
46288;SDS011;63105;46.158;14.604;2024-03-07T12:05:03;15.48;;;11.50;;
46288;SDS011;63105;46.158;14.604;2024-03-07T12:07:30;13.25;;;9.73;;
46288;SDS011;63105;46.158;14.604;2024-03-07T12:09:55;16.23;;;11.20;;
46288;SDS011;63105;46.158;14.604;2024-03-07T12:12:21;18.10;;;11.35;;
46288;SDS011;63105;46.158;14.604;2024-03-07T12:14:46;16.15;;;10.90;;
46288;SDS011;63105;46.158;14.604;2024-03-07T12:17:12;14.52;;;10.25;;
46288;SDS011;63105;46.158;14.604;2024-03-07T12:19:38;13.85;;;10.13;;
46288;SDS011;63105;46.158;14.604;2024-03-07T12:22:07;14.63;;;9.82;;
46288;SDS011;63105;46.158;14.604;2024-03-07T12:24:37;14.73;;;9.88;;
46288;SDS011;63105;46.158;14.604;2024-03-07T12:27:06;15.68;;;10.30;;
46288;SDS011;63105;46.158;14.604;2024-03-07T12:29:31;15.43;;;11.40;;
46288;SDS011;63105;46.158;14.604;2024-03-07T12:31:56;17.00;;;10.90;;
46288;SDS011;63105;46.158;14.604;2024-03-07T12:34:22;16.05;;;10.55;;
46288;SDS011;63105;46.158;14.604;2024-03-07T12:36:51;15.07;;;10.13;;
46288;SDS011;63105;46.158;14.604;2024-03-07T12:39:24;16.80;;;10.00;;
46288;SDS011;63105;46.158;14.604;2024-03-07T12:41:50;16.10;;;10.57;;
46288;SDS011;63105;46.158;14.604;2024-03-07T12:44:21;30.15;;;18.15;;
46288;SDS011;63105;46.158;14.604;2024-03-07T12:46:52;15.98;;;10.15;;
46288;SDS011;63105;46.158;14.604;2024-03-07T12:49:21;13.65;;;9.13;;
46288;SDS011;63105;46.158;14.604;2024-03-07T12:51:46;15.35;;;9.82;;
46288;SDS011;63105;46.158;14.604;2024-03-07T12:54:11;14.40;;;9.48;;
46288;SDS011;63105;46.158;14.604;2024-03-07T12:56:37;14.77;;;9.63;;
46288;SDS011;63105;46.158;14.604;2024-03-07T12:59:05;13.88;;;9.65;;
46288;SDS011;63105;46.158;14.604;2024-03-07T13:01:34;13.68;;;9.57;;
46288;SDS011;63105;46.158;14.604;2024-03-07T13:03:59;14.68;;;9.35;;
46288;SDS011;63105;46.158;14.604;2024-03-07T13:06:24;12.98;;;8.52;;
46288;SDS011;63105;46.158;14.604;2024-03-07T13:08:55;14.40;;;9.20;;
46288;SDS011;63105;46.158;14.604;2024-03-07T13:11:22;13.15;;;9.32;;
46288;SDS011;63105;46.158;14.604;2024-03-07T13:13:47;13.50;;;8.55;;
46288;SDS011;63105;46.158;14.604;2024-03-07T13:16:12;12.52;;;8.60;;
46288;SDS011;63105;46.158;14.604;2024-03-07T13:18:39;12.45;;;8.68;;
46288;SDS011;63105;46.158;14.604;2024-03-07T13:21:04;11.88;;;8.60;;
46288;SDS011;63105;46.158;14.604;2024-03-07T13:23:31;13.38;;;8.32;;
46288;SDS011;63105;46.158;14.604;2024-03-07T13:25:57;12.98;;;8.27;;
46288;SDS011;63105;46.158;14.604;2024-03-07T13:28:23;10.05;;;7.03;;
46288;SDS011;63105;46.158;14.604;2024-03-07T13:30:50;10.65;;;6.85;;
46288;SDS011;63105;46.158;14.604;2024-03-07T13:33:19;11.77;;;6.63;;
46288;SDS011;63105;46.158;14.604;2024-03-07T13:35:44;10.23;;;6.70;;
46288;SDS011;63105;46.158;14.604;2024-03-07T13:38:10;10.15;;;6.28;;
46288;SDS011;63105;46.158;14.604;2024-03-07T13:40:35;9.88;;;6.57;;
46288;SDS011;63105;46.158;14.604;2024-03-07T13:43:03;10.20;;;6.65;;
46288;SDS011;63105;46.158;14.604;2024-03-07T13:45:30;9.10;;;6.35;;
46288;SDS011;63105;46.158;14.604;2024-03-07T13:48:04;9.23;;;5.45;;
46288;SDS011;63105;46.158;14.604;2024-03-07T13:50:30;8.00;;;5.18;;
46288;SDS011;63105;46.158;14.604;2024-03-07T13:52:56;8.18;;;5.97;;
46288;SDS011;63105;46.158;14.604;2024-03-07T13:55:55;9.32;;;6.55;;
46288;SDS011;63105;46.158;14.604;2024-03-07T14:06:11;9.45;;;6.13;;
46288;SDS011;63105;46.158;14.604;2024-03-07T14:32:16;10.75;;;7.15;;
46288;SDS011;63105;46.158;14.604;2024-03-07T14:35:00;13.73;;;8.45;;
46288;SDS011;63105;46.158;14.604;2024-03-07T14:37:32;9.38;;;6.93;;
46288;SDS011;63105;46.158;14.604;2024-03-07T14:40:07;12.05;;;8.57;;
46288;SDS011;63105;46.158;14.604;2024-03-07T14:42:35;11.18;;;7.40;;
46288;SDS011;63105;46.158;14.604;2024-03-07T14:45:01;11.80;;;8.18;;
46288;SDS011;63105;46.158;14.604;2024-03-07T14:47:32;11.75;;;8.13;;